createdAt,value
2023-02-21T00:01:42.944Z,7.76
2023-02-21T00:04:31.287Z,7.76
2023-02-21T00:07:19.794Z,7.76
2023-02-21T00:10:08.830Z,7.71
2023-02-21T00:12:56.900Z,7.75
2023-02-21T00:15:45.211Z,7.73
2023-02-21T00:18:33.667Z,7.76
2023-02-21T00:21:22.603Z,7.75
2023-02-21T00:24:11.463Z,7.75
2023-02-21T00:27:00.272Z,7.76
2023-02-21T00:29:46.294Z,7.74
2023-02-21T00:32:32.408Z,7.74
2023-02-21T00:35:21.038Z,7.75
2023-02-21T00:38:11.229Z,7.72
2023-02-21T00:40:59.379Z,7.69
2023-02-21T00:43:53.714Z,7.65
2023-02-21T00:46:42.102Z,7.64
2023-02-21T00:49:31.096Z,7.63
2023-02-21T00:52:19.006Z,7.61
2023-02-21T00:55:06.817Z,7.64
2023-02-21T00:57:55.270Z,7.67
2023-02-21T01:00:44.632Z,7.66
2023-02-21T01:03:33.250Z,7.68
2023-02-21T01:06:21.585Z,7.69
2023-02-21T01:09:09.902Z,7.70
2023-02-21T01:11:58.190Z,7.71
2023-02-21T01:14:46.516Z,7.70
2023-02-21T01:17:35.076Z,7.70
2023-02-21T01:20:24.962Z,7.72
2023-02-21T01:23:13.379Z,7.72
2023-02-21T01:26:02.160Z,7.73
2023-02-21T01:28:50.470Z,7.75
2023-02-21T01:31:40.667Z,7.75
2023-02-21T01:34:28.885Z,7.80
2023-02-21T01:37:17.156Z,7.79
2023-02-21T01:40:05.510Z,7.89
2023-02-21T01:42:53.946Z,7.87
2023-02-21T01:45:42.335Z,7.85
2023-02-21T01:48:37.464Z,7.85
2023-02-21T01:51:29.560Z,7.94
2023-02-21T01:54:18.986Z,7.95
2023-02-21T01:57:08.252Z,8.00
2023-02-21T01:59:56.904Z,8.07
2023-02-21T02:03:07.596Z,8.12
2023-02-21T02:05:58.948Z,8.11
2023-02-21T02:08:50.228Z,8.11
2023-02-21T02:12:00.941Z,8.22
2023-02-21T02:15:21.723Z,8.25
2023-02-21T02:18:25.668Z,8.23
2023-02-21T02:21:17.398Z,8.27
2023-02-21T02:24:23.583Z,8.33
2023-02-21T02:27:34.164Z,8.41
2023-02-21T02:30:16.995Z,8.39
2023-02-21T02:33:21.241Z,8.41
2023-02-21T02:36:03.948Z,8.46
2023-02-21T02:38:56.407Z,8.50
2023-02-21T02:42:11.800Z,8.46
2023-02-21T02:44:52.120Z,8.47
2023-02-21T02:47:34.705Z,8.51
2023-02-21T02:50:09.890Z,8.50
2023-02-21T02:52:52.451Z,8.48
2023-02-21T02:55:43.785Z,8.46
2023-02-21T02:58:15.852Z,8.46
2023-02-21T03:01:13.665Z,8.49
2023-02-21T03:03:58.387Z,8.50
2023-02-21T03:06:55.196Z,8.51
2023-02-21T03:09:38.199Z,8.54
2023-02-21T03:12:35.820Z,8.61
2023-02-21T03:15:36.819Z,8.60
2023-02-21T03:18:34.622Z,8.60
2023-02-21T03:21:13.486Z,8.64
2023-02-21T03:23:48.891Z,8.64
2023-02-21T03:26:19.311Z,8.66
2023-02-21T03:28:48.882Z,8.73
2023-02-21T03:31:28.657Z,8.74
2023-02-21T03:33:58.782Z,8.74
2023-02-21T03:36:28.829Z,8.71
2023-02-21T03:38:58.658Z,8.71
2023-02-21T03:41:28.562Z,8.76
2023-02-21T03:43:58.627Z,8.76
2023-02-21T03:46:28.375Z,8.75
2023-02-21T03:48:58.166Z,8.76
2023-02-21T03:51:27.943Z,8.76
2023-02-21T03:53:57.756Z,8.84
2023-02-21T03:56:36.661Z,8.81
2023-02-21T03:59:10.264Z,8.73
2023-02-21T04:01:40.253Z,8.71
2023-02-21T04:04:10.044Z,8.80
2023-02-21T04:06:39.858Z,8.78
2023-02-21T04:09:09.626Z,8.72
2023-02-21T04:11:44.258Z,8.77
2023-02-21T04:14:14.024Z,8.78
2023-02-21T04:16:43.925Z,8.76
2023-02-21T04:19:13.241Z,8.85
2023-02-21T04:21:43.071Z,8.87
2023-02-21T04:24:13.311Z,8.86
2023-02-21T04:26:43.095Z,8.88
2023-02-21T04:29:12.899Z,8.84
2023-02-21T04:31:42.736Z,8.78
2023-02-21T04:34:12.412Z,8.81
2023-02-21T04:36:40.464Z,8.86
2023-02-21T04:39:08.588Z,8.86
2023-02-21T04:41:36.359Z,8.81
2023-02-21T04:44:06.292Z,8.79
2023-02-21T04:46:34.369Z,8.79
2023-02-21T04:49:02.041Z,8.73
2023-02-21T04:51:29.991Z,8.70
2023-02-21T04:53:58.544Z,8.64
2023-02-21T04:56:30.197Z,8.60
2023-02-21T04:58:58.937Z,8.60
2023-02-21T05:01:31.507Z,8.60
2023-02-21T05:04:01.881Z,8.58
2023-02-21T05:06:32.516Z,8.55
2023-02-21T05:09:03.775Z,8.55
2023-02-21T05:11:34.872Z,8.46
2023-02-21T05:14:02.759Z,8.37
2023-02-21T05:16:30.957Z,8.29
2023-02-21T05:18:59.442Z,8.26
2023-02-21T05:21:27.966Z,8.23
2023-02-21T05:23:57.771Z,8.19
2023-02-21T05:26:33.057Z,8.17
2023-02-21T05:29:04.523Z,8.17
2023-02-21T05:31:34.331Z,8.18
2023-02-21T05:34:04.194Z,8.16
2023-02-21T05:36:34.058Z,8.10
2023-02-21T05:39:05.505Z,8.08
2023-02-21T05:41:35.924Z,8.09
2023-02-21T05:44:06.326Z,8.09
2023-02-21T05:46:36.100Z,8.09
2023-02-21T05:49:06.085Z,8.09
2023-02-21T05:51:43.304Z,8.08
2023-02-21T05:54:19.566Z,8.09
2023-02-21T05:56:52.313Z,8.11
2023-02-21T05:59:22.561Z,8.13
2023-02-21T06:01:52.383Z,8.09
2023-02-21T06:04:23.423Z,8.07
2023-02-21T06:06:53.183Z,8.05
2023-02-21T06:09:22.981Z,8.06
2023-02-21T06:11:56.705Z,8.03
2023-02-21T06:14:26.926Z,7.99
2023-02-21T06:16:56.652Z,7.95
2023-02-21T06:19:26.352Z,7.96
2023-02-21T06:21:56.155Z,7.94
2023-02-21T06:24:25.859Z,7.91
2023-02-21T06:26:55.881Z,7.91
2023-02-21T06:29:25.757Z,7.91
2023-02-21T06:32:00.740Z,7.91
2023-02-21T06:34:30.494Z,7.91
2023-02-21T06:37:00.340Z,7.91
2023-02-21T06:39:30.440Z,7.91
2023-02-21T06:42:00.151Z,7.89
2023-02-21T06:44:29.844Z,7.89
2023-02-21T06:46:59.666Z,7.88
2023-02-21T06:49:29.541Z,7.87
2023-02-21T06:52:00.525Z,7.86
2023-02-21T06:54:30.527Z,7.87
2023-02-21T06:57:01.730Z,7.87
2023-02-21T06:59:31.793Z,7.86
2023-02-21T07:02:02.840Z,7.86
2023-02-21T07:04:32.769Z,7.87
2023-02-21T07:07:02.573Z,7.87
2023-02-21T07:09:32.295Z,7.85
2023-02-21T07:12:03.357Z,7.86
2023-02-21T07:14:33.542Z,7.85
2023-02-21T07:17:03.317Z,7.86
2023-02-21T07:19:33.165Z,7.88
2023-02-21T07:22:03.139Z,7.88
2023-02-21T07:24:33.255Z,7.89
2023-02-21T07:27:04.759Z,7.91
2023-02-21T07:29:34.525Z,7.91
2023-02-21T07:32:04.599Z,7.89
2023-02-21T07:34:34.369Z,7.87
2023-02-21T07:37:04.207Z,7.84
2023-02-21T07:39:34.172Z,7.84
2023-02-21T07:42:10.283Z,7.84
2023-02-21T07:44:39.287Z,7.86
2023-02-21T07:47:07.826Z,7.88
2023-02-21T07:49:41.120Z,7.89
2023-02-21T07:52:10.862Z,7.93
2023-02-21T07:54:40.661Z,7.97
2023-02-21T07:57:10.443Z,8.00
2023-02-21T07:59:40.174Z,8.02
2023-02-21T08:02:12.550Z,8.02
2023-02-21T08:04:42.686Z,8.02
2023-02-21T08:07:12.499Z,7.97
2023-02-21T08:09:41.170Z,7.97
2023-02-21T08:12:14.858Z,7.98
2023-02-21T08:14:44.457Z,7.99
2023-02-21T08:17:14.306Z,7.98
2023-02-21T08:19:44.127Z,8.03
2023-02-21T08:22:13.917Z,8.07
2023-02-21T08:24:43.801Z,8.08
2023-02-21T08:27:13.551Z,8.11
2023-02-21T08:29:43.840Z,8.17
2023-02-21T08:32:13.601Z,8.29
2023-02-21T08:34:50.305Z,8.41
2023-02-21T08:37:20.115Z,8.49
2023-02-21T08:39:52.544Z,8.49
2023-02-21T08:42:25.171Z,8.53
2023-02-21T08:44:52.735Z,8.52
2023-02-21T08:47:22.494Z,8.52
2023-02-21T08:49:52.275Z,8.53
2023-02-21T08:52:22.055Z,8.53
2023-02-21T08:54:51.855Z,8.52
2023-02-21T08:57:21.718Z,8.53
2023-02-21T08:59:51.710Z,8.52
2023-02-21T09:02:25.358Z,8.56
2023-02-21T09:04:55.141Z,8.57
2023-02-21T09:07:25.473Z,8.57
2023-02-21T09:09:55.282Z,8.55
2023-02-21T09:12:25.128Z,8.47
2023-02-21T09:14:54.951Z,8.42
2023-02-21T09:17:24.681Z,8.41
2023-02-21T09:19:54.417Z,8.40
2023-02-21T09:22:24.194Z,8.38
2023-02-21T09:24:53.937Z,8.40
2023-02-21T09:27:36.545Z,8.41
2023-02-21T09:30:15.805Z,8.41
2023-02-21T09:32:45.719Z,8.48
2023-02-21T09:35:17.205Z,8.56
2023-02-21T09:37:47.852Z,8.61
2023-02-21T09:40:38.992Z,8.71
2023-02-21T09:43:21.385Z,8.76
2023-02-21T09:45:56.478Z,8.80
2023-02-21T09:48:28.687Z,8.84
2023-02-21T09:51:06.913Z,8.92
2023-02-21T09:53:42.180Z,8.92
2023-02-21T09:56:38.988Z,9.08
2023-02-21T09:59:13.340Z,9.05
2023-02-21T10:02:10.674Z,9.19
2023-02-21T10:05:05.319Z,9.20
2023-02-21T10:07:54.643Z,9.14
2023-02-21T10:10:49.811Z,9.12
2023-02-21T10:13:30.688Z,9.06
2023-02-21T10:16:17.753Z,8.98
2023-02-21T10:19:01.833Z,9.21
2023-02-21T10:21:39.652Z,9.26
2023-02-21T10:24:19.205Z,9.72
2023-02-21T10:27:03.115Z,10.17
2023-02-21T10:30:04.774Z,10.42
2023-02-21T10:32:33.251Z,10.39
2023-02-21T10:35:04.983Z,10.41
2023-02-21T10:37:48.562Z,10.27
2023-02-21T10:40:57.936Z,10.09
2023-02-21T10:43:38.650Z,10.25
2023-02-21T10:46:27.714Z,10.41
2023-02-21T10:49:17.110Z,10.43
2023-02-21T10:51:47.224Z,10.59
2023-02-21T10:54:26.003Z,10.66
2023-02-21T10:56:56.512Z,10.99
2023-02-21T10:59:37.100Z,10.67
2023-02-21T11:02:34.876Z,10.63
2023-02-21T11:05:22.204Z,10.48
2023-02-21T11:08:10.252Z,10.45
2023-02-21T11:10:44.821Z,10.26
2023-02-21T11:13:23.466Z,10.22
2023-02-21T11:16:20.083Z,10.25
2023-02-21T11:19:07.386Z,10.23
2023-02-21T11:21:37.159Z,10.13
2023-02-21T11:24:11.221Z,10.05
2023-02-21T11:26:53.944Z,10.11
2023-02-21T11:29:27.289Z,10.23
2023-02-21T11:31:57.158Z,10.14
2023-02-21T11:34:30.119Z,10.23
2023-02-21T11:37:04.769Z,10.17
2023-02-21T11:39:35.180Z,10.08
2023-02-21T11:42:23.607Z,10.03
2023-02-21T11:45:29.989Z,10.04
2023-02-21T11:48:04.933Z,10.10
2023-02-21T11:50:46.732Z,10.08
2023-02-21T11:53:30.678Z,10.15
2023-02-21T11:56:42.768Z,10.04
2023-02-21T11:59:46.288Z,9.99
2023-02-21T12:02:40.638Z,9.86
2023-02-21T12:05:39.909Z,9.85
2023-02-21T12:08:46.759Z,9.76
2023-02-21T12:11:52.082Z,9.82
2023-02-21T12:14:33.665Z,9.79
2023-02-21T12:17:54.473Z,9.77
2023-02-21T12:20:26.906Z,9.51
2023-02-21T12:23:15.995Z,9.47
2023-02-21T12:26:09.856Z,9.46
2023-02-21T12:29:22.819Z,9.50
2023-02-21T12:32:16.825Z,9.52
2023-02-21T12:35:34.621Z,9.54
2023-02-21T12:38:31.551Z,9.63
2023-02-21T12:41:35.665Z,9.62
2023-02-21T12:44:44.262Z,9.57
2023-02-21T12:47:42.955Z,9.60
2023-02-21T12:50:30.834Z,9.70
2023-02-21T12:53:25.374Z,9.70
2023-02-21T12:56:16.306Z,9.62
2023-02-21T12:58:58.510Z,9.76
2023-02-21T13:01:40.121Z,9.75
2023-02-21T13:04:36.390Z,9.73
2023-02-21T13:07:25.710Z,9.60
2023-02-21T13:10:19.847Z,9.66
2023-02-21T13:12:58.920Z,9.85
2023-02-21T13:15:32.077Z,9.92
2023-02-21T13:18:19.789Z,9.79
2023-02-21T13:21:00.407Z,9.78
2023-02-21T13:23:54.927Z,9.80
2023-02-21T13:26:52.207Z,9.79
2023-02-21T13:29:34.848Z,9.83
2023-02-21T13:32:21.572Z,9.82
2023-02-21T13:35:07.525Z,9.80
2023-02-21T13:37:46.584Z,9.81
2023-02-21T13:40:35.213Z,9.80
2023-02-21T13:43:10.317Z,9.94
2023-02-21T13:45:40.148Z,9.89
2023-02-21T13:48:22.172Z,9.81
2023-02-21T13:50:56.340Z,9.76
2023-02-21T13:54:11.508Z,9.76
2023-02-21T13:56:44.408Z,9.81
2023-02-21T13:59:22.992Z,9.81
2023-02-21T14:02:31.045Z,9.73
2023-02-21T14:05:06.558Z,9.71
2023-02-21T14:08:15.298Z,9.69
2023-02-21T14:10:58.030Z,9.76
2023-02-21T14:13:58.507Z,9.74
2023-02-21T14:17:02.498Z,9.70
2023-02-21T14:19:40.941Z,9.69
2023-02-21T14:22:24.437Z,9.74
2023-02-21T14:25:10.076Z,9.74
2023-02-21T14:27:40.578Z,9.73
2023-02-21T14:30:10.224Z,9.72
2023-02-21T14:32:58.240Z,9.66
2023-02-21T14:35:56.195Z,9.61
2023-02-21T14:38:36.569Z,9.52
2023-02-21T14:42:12.068Z,9.50
2023-02-21T14:45:10.253Z,9.45
2023-02-21T14:48:09.186Z,9.45
2023-02-21T14:51:40.658Z,9.42
2023-02-21T14:54:56.657Z,9.40
2023-02-21T14:58:23.494Z,9.36
2023-02-21T15:01:05.491Z,9.36
2023-02-21T15:03:46.518Z,9.37
2023-02-21T15:06:24.655Z,9.34
2023-02-21T15:08:54.953Z,9.33
2023-02-21T15:11:39.719Z,9.31
2023-02-21T15:14:27.706Z,9.34
2023-02-21T15:17:12.907Z,9.36
2023-02-21T15:19:42.752Z,9.33
2023-02-21T15:22:25.901Z,9.33
2023-02-21T15:25:08.028Z,9.29
2023-02-21T15:27:49.792Z,9.30
2023-02-21T15:30:37.702Z,9.27
2023-02-21T15:33:16.263Z,9.23
2023-02-21T15:35:50.716Z,9.23
2023-02-21T15:38:30.828Z,9.19
2023-02-21T15:41:13.725Z,9.18
2023-02-21T15:44:26.718Z,9.17
2023-02-21T15:47:04.335Z,9.15
2023-02-21T15:49:43.547Z,9.17
2023-02-21T15:52:37.656Z,9.13
2023-02-21T15:55:22.872Z,9.11
2023-02-21T15:58:04.136Z,9.03
2023-02-21T16:00:42.173Z,9.03
2023-02-21T16:03:42.007Z,9.01
2023-02-21T16:06:25.164Z,8.98
2023-02-21T16:09:03.812Z,8.93
2023-02-21T16:12:00.749Z,8.90
2023-02-21T16:14:59.039Z,8.86
2023-02-21T16:17:32.921Z,8.81
2023-02-21T16:20:20.081Z,8.79
2023-02-21T16:23:11.638Z,8.76
2023-02-21T16:26:15.518Z,8.70
2023-02-21T16:28:45.837Z,8.62
2023-02-21T16:31:29.293Z,8.60
2023-02-21T16:33:57.614Z,8.56
2023-02-21T16:36:31.873Z,8.56
2023-02-21T16:39:01.610Z,8.56
2023-02-21T16:41:31.447Z,8.53
2023-02-21T16:44:01.362Z,8.46
2023-02-21T16:46:31.169Z,8.43
2023-02-21T16:49:00.958Z,8.39
2023-02-21T16:51:34.781Z,8.38
2023-02-21T16:54:04.588Z,8.38
2023-02-21T16:56:34.533Z,8.39
2023-02-21T16:59:04.654Z,8.37
2023-02-21T17:01:34.603Z,8.34
2023-02-21T17:04:06.875Z,8.33
2023-02-21T17:06:37.059Z,8.29
2023-02-21T17:09:06.777Z,8.28
2023-02-21T17:11:36.757Z,8.23
2023-02-21T17:14:06.557Z,8.15
2023-02-21T17:16:37.860Z,8.09
2023-02-21T17:19:12.501Z,8.04
2023-02-21T17:21:43.548Z,8.07
2023-02-21T17:24:15.109Z,8.03
2023-02-21T17:26:45.773Z,7.99
2023-02-21T17:29:15.604Z,7.97
2023-02-21T17:31:45.474Z,7.99
2023-02-21T17:34:15.337Z,7.96
2023-02-21T17:36:51.577Z,7.97
2023-02-21T17:39:21.791Z,7.98
2023-02-21T17:41:52.706Z,7.96
2023-02-21T17:44:25.922Z,7.96
2023-02-21T17:46:58.091Z,7.98
2023-02-21T17:49:28.717Z,8.00
2023-02-21T17:51:59.038Z,8.00
2023-02-21T17:54:28.935Z,7.98
2023-02-21T17:56:58.751Z,8.01
2023-02-21T17:59:28.486Z,8.02
2023-02-21T18:01:58.264Z,8.02
2023-02-21T18:04:28.263Z,8.02
2023-02-21T18:06:58.237Z,7.99
2023-02-21T18:09:28.084Z,7.98
2023-02-21T18:12:00.310Z,7.98
2023-02-21T18:14:32.883Z,7.94
2023-02-21T18:17:02.913Z,7.90
2023-02-21T18:19:32.769Z,7.89
2023-02-21T18:22:05.210Z,7.84
2023-02-21T18:24:35.018Z,7.80
2023-02-21T18:27:04.727Z,7.75
2023-02-21T18:29:34.503Z,7.72
2023-02-21T18:32:04.346Z,7.69
2023-02-21T18:34:34.205Z,7.64
2023-02-21T18:37:04.187Z,7.57
2023-02-21T18:39:34.024Z,7.47
2023-02-21T18:42:02.336Z,7.37
2023-02-21T18:44:32.532Z,7.30
2023-02-21T18:47:02.538Z,7.38
2023-02-21T18:49:37.791Z,7.44
2023-02-21T18:52:08.206Z,7.44
2023-02-21T18:54:48.791Z,7.43
2023-02-21T18:57:22.492Z,7.41
2023-02-21T18:59:51.072Z,7.39
2023-02-21T19:02:19.738Z,7.51
2023-02-21T19:04:48.115Z,7.50
2023-02-21T19:07:19.733Z,7.55
2023-02-21T19:09:50.398Z,7.63
2023-02-21T19:12:20.484Z,7.59
2023-02-21T19:14:50.461Z,7.60
2023-02-21T19:17:20.222Z,7.59
2023-02-21T19:19:50.009Z,7.59
2023-02-21T19:22:20.203Z,7.58
2023-02-21T19:24:50.098Z,7.57
2023-02-21T19:27:19.966Z,7.57
2023-02-21T19:29:49.805Z,7.54
2023-02-21T19:32:20.862Z,7.53
2023-02-21T19:34:52.032Z,7.51
2023-02-21T19:37:22.014Z,7.51
2023-02-21T19:39:51.909Z,7.51
2023-02-21T19:42:21.876Z,7.52
2023-02-21T19:44:51.806Z,7.51
2023-02-21T19:47:21.623Z,7.49
2023-02-21T19:49:51.376Z,7.47
2023-02-21T19:52:21.205Z,7.47
2023-02-21T19:54:51.002Z,7.47
2023-02-21T19:57:21.119Z,7.47
2023-02-21T19:59:50.924Z,7.49
2023-02-21T20:02:21.104Z,7.51
2023-02-21T20:04:50.914Z,7.50
2023-02-21T20:07:20.890Z,7.52
2023-02-21T20:09:50.646Z,7.56
2023-02-21T20:12:22.872Z,7.55
2023-02-21T20:14:53.985Z,7.52
2023-02-21T20:17:24.245Z,7.53
2023-02-21T20:19:54.048Z,7.54
2023-02-21T20:22:25.412Z,7.54
2023-02-21T20:24:55.640Z,7.56
2023-02-21T20:27:25.970Z,7.54
2023-02-21T20:29:56.868Z,7.55
2023-02-21T20:32:26.861Z,7.54
2023-02-21T20:34:56.884Z,7.49
2023-02-21T20:37:31.021Z,7.48
2023-02-21T20:40:02.013Z,7.48
2023-02-21T20:42:32.231Z,7.50
2023-02-21T20:45:02.060Z,7.49
2023-02-21T20:47:31.861Z,7.48
2023-02-21T20:50:01.897Z,7.49
2023-02-21T20:52:31.773Z,7.47
2023-02-21T20:55:03.570Z,7.41
2023-02-21T20:57:33.951Z,7.41
2023-02-21T21:00:09.200Z,7.45
2023-02-21T21:02:39.332Z,7.46
2023-02-21T21:05:16.820Z,7.46
2023-02-21T21:07:47.048Z,7.46
2023-02-21T21:10:18.901Z,7.43
2023-02-21T21:12:50.140Z,7.42
2023-02-21T21:15:20.682Z,7.40
2023-02-21T21:17:48.382Z,7.35
2023-02-21T21:20:21.565Z,7.32
2023-02-21T21:22:51.331Z,7.31
2023-02-21T21:25:22.732Z,7.27
2023-02-21T21:27:52.679Z,7.25
2023-02-21T21:30:23.438Z,7.21
2023-02-21T21:32:53.359Z,7.18
2023-02-21T21:35:29.859Z,7.17
2023-02-21T21:38:02.828Z,7.12
2023-02-21T21:40:32.847Z,7.11
2023-02-21T21:43:02.545Z,7.06
2023-02-21T21:45:30.629Z,7.06
2023-02-21T21:48:01.435Z,7.04
2023-02-21T21:50:29.426Z,7.03
2023-02-21T21:52:58.557Z,6.99
2023-02-21T21:55:29.941Z,6.93
2023-02-21T21:57:59.737Z,6.93
2023-02-21T22:00:30.934Z,6.92
2023-02-21T22:03:01.988Z,6.90
2023-02-21T22:05:32.621Z,6.87
2023-02-21T22:08:02.977Z,6.87
2023-02-21T22:10:32.708Z,6.88
2023-02-21T22:13:09.659Z,6.87
2023-02-21T22:15:42.530Z,6.82
2023-02-21T22:18:18.492Z,6.78
2023-02-21T22:20:50.164Z,6.74
2023-02-21T22:23:21.712Z,6.73
2023-02-21T22:25:52.457Z,6.72
2023-02-21T22:28:22.196Z,6.71
2023-02-21T22:30:52.235Z,6.72
2023-02-21T22:33:22.561Z,6.72
2023-02-21T22:35:52.275Z,6.71
2023-02-21T22:38:22.059Z,6.69
2023-02-21T22:40:51.860Z,6.64
2023-02-21T22:43:21.550Z,6.61
2023-02-21T22:45:52.583Z,6.61
2023-02-21T22:48:22.344Z,6.58
2023-02-21T22:50:52.640Z,6.56
2023-02-21T22:53:22.523Z,6.58
2023-02-21T22:55:53.279Z,6.57
2023-02-21T22:58:23.140Z,6.56
2023-02-21T23:00:53.352Z,6.53
2023-02-21T23:03:23.215Z,6.51
2023-02-21T23:05:54.872Z,6.46
2023-02-21T23:08:24.609Z,6.46
2023-02-21T23:10:54.374Z,6.44
2023-02-21T23:13:25.234Z,6.46
2023-02-21T23:15:57.869Z,6.45
2023-02-21T23:18:27.679Z,6.41
2023-02-21T23:20:58.279Z,6.38
2023-02-21T23:23:29.198Z,6.34
2023-02-21T23:25:59.521Z,6.32
2023-02-21T23:28:30.473Z,6.31
2023-02-21T23:31:00.393Z,6.29
2023-02-21T23:33:33.942Z,6.30
2023-02-21T23:36:05.173Z,6.34
2023-02-21T23:38:41.051Z,6.36
2023-02-21T23:41:10.194Z,6.34
2023-02-21T23:43:37.978Z,6.34
2023-02-21T23:46:07.899Z,6.32
2023-02-21T23:48:34.785Z,6.31
2023-02-21T23:51:03.403Z,6.32
2023-02-21T23:53:31.876Z,6.30
2023-02-21T23:56:00.916Z,6.29
2023-02-21T23:58:34.227Z,6.27
